sensor_id;sensor_type;location;lat;lon;timestamp;pressure;altitude;pressure_sealevel;temperature;humidity
54194;BME280;40102;50.906;6.972;2023-05-01T00:00:25;101077.81;;;13.80;60.56
54194;BME280;40102;50.906;6.972;2023-05-01T00:02:52;101081.25;;;13.82;60.16
54194;BME280;40102;50.906;6.972;2023-05-01T00:05:18;101073.28;;;13.81;59.65
54194;BME280;40102;50.906;6.972;2023-05-01T00:07:46;101079.34;;;13.84;59.45
54194;BME280;40102;50.906;6.972;2023-05-01T00:10:12;101078.75;;;13.93;59.60
54194;BME280;40102;50.906;6.972;2023-05-01T00:12:38;101067.44;;;13.88;59.13
54194;BME280;40102;50.906;6.972;2023-05-01T00:15:04;101060.78;;;13.94;59.08
54194;BME280;40102;50.906;6.972;2023-05-01T00:17:30;101063.50;;;13.94;58.68
54194;BME280;40102;50.906;6.972;2023-05-01T00:19:55;101052.06;;;13.90;58.85
54194;BME280;40102;50.906;6.972;2023-05-01T00:22:20;101061.84;;;13.91;58.64
54194;BME280;40102;50.906;6.972;2023-05-01T00:24:46;101047.94;;;13.85;59.07
54194;BME280;40102;50.906;6.972;2023-05-01T00:27:13;101055.34;;;13.81;59.26
54194;BME280;40102;50.906;6.972;2023-05-01T00:29:40;101050.84;;;13.68;58.73
54194;BME280;40102;50.906;6.972;2023-05-01T00:32:06;101048.16;;;13.53;58.93
54194;BME280;40102;50.906;6.972;2023-05-01T00:34:33;101039.91;;;13.42;59.22
54194;BME280;40102;50.906;6.972;2023-05-01T00:36:58;101047.19;;;13.40;59.08
54194;BME280;40102;50.906;6.972;2023-05-01T00:39:24;101058.81;;;13.41;59.30
54194;BME280;40102;50.906;6.972;2023-05-01T00:41:49;101050.66;;;13.42;59.33
54194;BME280;40102;50.906;6.972;2023-05-01T00:44:15;101045.09;;;13.45;59.43
54194;BME280;40102;50.906;6.972;2023-05-01T00:46:42;101049.13;;;13.52;58.88
54194;BME280;40102;50.906;6.972;2023-05-01T00:49:09;101052.00;;;13.49;58.34
54194;BME280;40102;50.906;6.972;2023-05-01T00:51:35;101035.78;;;13.37;58.27
54194;BME280;40102;50.906;6.972;2023-05-01T00:54:02;101032.31;;;13.35;58.33
54194;BME280;40102;50.906;6.972;2023-05-01T00:56:29;101047.00;;;13.43;58.34
54194;BME280;40102;50.906;6.972;2023-05-01T00:58:56;101047.19;;;13.54;58.88
54194;BME280;40102;50.906;6.972;2023-05-01T01:01:22;101035.97;;;13.62;58.83
54194;BME280;40102;50.906;6.972;2023-05-01T01:03:48;101032.00;;;13.82;58.29
54194;BME280;40102;50.906;6.972;2023-05-01T01:06:29;101029.88;;;13.87;57.14
54194;BME280;40102;50.906;6.972;2023-05-01T01:11:58;101024.44;;;13.74;57.77
54194;BME280;40102;50.906;6.972;2023-05-01T01:15:00;101017.72;;;13.67;58.13
54194;BME280;40102;50.906;6.972;2023-05-01T01:20:40;100998.34;;;13.62;58.31
54194;BME280;40102;50.906;6.972;2023-05-01T01:31:38;100988.25;;;13.66;58.39
54194;BME280;40102;50.906;6.972;2023-05-01T01:34:18;100996.22;;;13.67;58.54
54194;BME280;40102;50.906;6.972;2023-05-01T01:36:50;100999.19;;;13.63;58.79
54194;BME280;40102;50.906;6.972;2023-05-01T01:41:58;100988.94;;;13.55;58.30
54194;BME280;40102;50.906;6.972;2023-05-01T01:44:36;100987.22;;;13.54;57.94
54194;BME280;40102;50.906;6.972;2023-05-01T01:47:06;100991.44;;;13.58;58.06
54194;BME280;40102;50.906;6.972;2023-05-01T01:49:34;100982.81;;;13.53;58.22
54194;BME280;40102;50.906;6.972;2023-05-01T01:52:02;100967.84;;;13.49;57.91
54194;BME280;40102;50.906;6.972;2023-05-01T01:54:39;100983.75;;;13.52;58.15
54194;BME280;40102;50.906;6.972;2023-05-01T01:57:07;100974.16;;;13.48;58.59
54194;BME280;40102;50.906;6.972;2023-05-01T01:59:34;100966.50;;;13.42;58.57
54194;BME280;40102;50.906;6.972;2023-05-01T02:02:02;100961.69;;;13.47;58.65
54194;BME280;40102;50.906;6.972;2023-05-01T02:04:30;100968.41;;;13.54;58.66
54194;BME280;40102;50.906;6.972;2023-05-01T02:06:58;100952.56;;;13.49;58.27
54194;BME280;40102;50.906;6.972;2023-05-01T02:09:27;100955.06;;;13.52;58.56
54194;BME280;40102;50.906;6.972;2023-05-01T02:11:54;100961.66;;;13.61;58.45
54194;BME280;40102;50.906;6.972;2023-05-01T02:14:22;100952.66;;;13.62;58.44
54194;BME280;40102;50.906;6.972;2023-05-01T02:16:50;100943.34;;;13.53;58.32
54194;BME280;40102;50.906;6.972;2023-05-01T02:19:17;100943.44;;;13.52;58.13
54194;BME280;40102;50.906;6.972;2023-05-01T02:21:44;100951.97;;;13.58;57.92
54194;BME280;40102;50.906;6.972;2023-05-01T02:24:12;100936.66;;;13.46;57.73
54194;BME280;40102;50.906;6.972;2023-05-01T02:26:42;100931.56;;;13.42;58.15
54194;BME280;40102;50.906;6.972;2023-05-01T02:29:12;100935.03;;;13.44;58.28
54194;BME280;40102;50.906;6.972;2023-05-01T02:31:38;100928.13;;;13.40;58.44
54194;BME280;40102;50.906;6.972;2023-05-01T02:34:06;100929.75;;;13.42;58.63
54194;BME280;40102;50.906;6.972;2023-05-01T02:36:32;100926.78;;;13.33;58.98
54194;BME280;40102;50.906;6.972;2023-05-01T02:38:59;100929.00;;;13.26;59.24
54194;BME280;40102;50.906;6.972;2023-05-01T02:41:26;100924.88;;;13.20;59.63
54194;BME280;40102;50.906;6.972;2023-05-01T02:43:57;100918.91;;;13.15;59.79
54194;BME280;40102;50.906;6.972;2023-05-01T02:46:26;100914.78;;;13.10;60.05
54194;BME280;40102;50.906;6.972;2023-05-01T02:48:54;100921.59;;;13.15;60.68
54194;BME280;40102;50.906;6.972;2023-05-01T02:51:22;100907.59;;;13.10;60.55
54194;BME280;40102;50.906;6.972;2023-05-01T02:53:49;100915.94;;;13.20;60.78
54194;BME280;40102;50.906;6.972;2023-05-01T02:56:15;100900.38;;;13.11;60.96
54194;BME280;40102;50.906;6.972;2023-05-01T02:58:41;100910.47;;;13.21;61.07
54194;BME280;40102;50.906;6.972;2023-05-01T03:01:07;100896.66;;;13.13;60.99
54194;BME280;40102;50.906;6.972;2023-05-01T03:03:33;100895.88;;;13.11;60.93
54194;BME280;40102;50.906;6.972;2023-05-01T03:06:00;100898.66;;;13.10;61.24
54194;BME280;40102;50.906;6.972;2023-05-01T03:08:27;100892.22;;;13.12;61.08
54194;BME280;40102;50.906;6.972;2023-05-01T03:10:52;100885.44;;;13.21;61.45
54194;BME280;40102;50.906;6.972;2023-05-01T03:13:18;100872.69;;;13.24;61.35
54194;BME280;40102;50.906;6.972;2023-05-01T03:15:44;100880.66;;;13.26;61.71
54194;BME280;40102;50.906;6.972;2023-05-01T03:18:10;100884.97;;;13.28;61.93
54194;BME280;40102;50.906;6.972;2023-05-01T03:20:36;100890.44;;;13.27;62.05
54194;BME280;40102;50.906;6.972;2023-05-01T03:23:02;100876.34;;;13.23;62.38
54194;BME280;40102;50.906;6.972;2023-05-01T03:25:28;100869.31;;;13.35;62.14
54194;BME280;40102;50.906;6.972;2023-05-01T03:27:54;100870.63;;;13.42;61.76
54194;BME280;40102;50.906;6.972;2023-05-01T03:30:20;100858.06;;;13.43;61.58
54194;BME280;40102;50.906;6.972;2023-05-01T03:32:45;100866.28;;;13.54;61.52
54194;BME280;40102;50.906;6.972;2023-05-01T03:35:11;100867.16;;;13.54;61.35
54194;BME280;40102;50.906;6.972;2023-05-01T03:37:37;100872.50;;;13.54;61.32
54194;BME280;40102;50.906;6.972;2023-05-01T03:40:05;100867.16;;;13.54;61.17
54194;BME280;40102;50.906;6.972;2023-05-01T03:42:32;100861.31;;;13.48;61.19
54194;BME280;40102;50.906;6.972;2023-05-01T03:44:58;100858.53;;;13.49;61.19
54194;BME280;40102;50.906;6.972;2023-05-01T03:47:24;100853.25;;;13.48;60.52
54194;BME280;40102;50.906;6.972;2023-05-01T03:49:50;100862.88;;;13.38;60.68
54194;BME280;40102;50.906;6.972;2023-05-01T03:52:16;100854.94;;;13.22;61.05
54194;BME280;40102;50.906;6.972;2023-05-01T03:54:46;100855.22;;;13.03;61.32
54194;BME280;40102;50.906;6.972;2023-05-01T03:57:12;100867.03;;;13.01;61.74
54194;BME280;40102;50.906;6.972;2023-05-01T03:59:39;100856.09;;;12.89;62.04
54194;BME280;40102;50.906;6.972;2023-05-01T04:02:05;100861.94;;;12.82;61.76
54194;BME280;40102;50.906;6.972;2023-05-01T04:04:31;100845.84;;;12.68;62.26
54194;BME280;40102;50.906;6.972;2023-05-01T04:06:57;100846.91;;;12.65;62.13
54194;BME280;40102;50.906;6.972;2023-05-01T04:09:22;100857.06;;;12.60;62.41
54194;BME280;40102;50.906;6.972;2023-05-01T04:11:49;100852.47;;;12.62;62.50
54194;BME280;40102;50.906;6.972;2023-05-01T04:14:14;100839.31;;;12.57;62.36
54194;BME280;40102;50.906;6.972;2023-05-01T04:16:40;100859.34;;;12.66;63.13
54194;BME280;40102;50.906;6.972;2023-05-01T04:19:06;100847.56;;;12.69;63.45
54194;BME280;40102;50.906;6.972;2023-05-01T04:21:33;100851.78;;;12.73;62.57
54194;BME280;40102;50.906;6.972;2023-05-01T04:23:58;100850.84;;;12.74;62.31
54194;BME280;40102;50.906;6.972;2023-05-01T04:26:24;100857.16;;;12.73;62.26
54194;BME280;40102;50.906;6.972;2023-05-01T04:28:50;100845.75;;;12.55;62.51
54194;BME280;40102;50.906;6.972;2023-05-01T04:31:16;100850.63;;;12.48;62.66
54194;BME280;40102;50.906;6.972;2023-05-01T04:33:43;100847.72;;;12.37;62.88
54194;BME280;40102;50.906;6.972;2023-05-01T04:36:08;100842.34;;;12.23;63.32
54194;BME280;40102;50.906;6.972;2023-05-01T04:38:34;100845.13;;;12.21;63.66
54194;BME280;40102;50.906;6.972;2023-05-01T04:41:02;100847.22;;;12.16;63.94
54194;BME280;40102;50.906;6.972;2023-05-01T04:43:30;100843.94;;;12.11;63.81
54194;BME280;40102;50.906;6.972;2023-05-01T04:45:56;100844.72;;;12.13;63.86
54194;BME280;40102;50.906;6.972;2023-05-01T04:48:22;100854.41;;;12.16;63.99
54194;BME280;40102;50.906;6.972;2023-05-01T04:50:49;100841.28;;;12.11;64.01
54194;BME280;40102;50.906;6.972;2023-05-01T04:53:15;100844.63;;;12.15;64.14
54194;BME280;40102;50.906;6.972;2023-05-01T04:55:42;100850.66;;;12.18;64.26
54194;BME280;40102;50.906;6.972;2023-05-01T04:58:08;100860.94;;;12.26;64.57
54194;BME280;40102;50.906;6.972;2023-05-01T05:00:35;100842.34;;;12.23;64.61
54194;BME280;40102;50.906;6.972;2023-05-01T05:03:01;100852.13;;;12.24;64.91
54194;BME280;40102;50.906;6.972;2023-05-01T05:05:27;100847.91;;;12.20;65.50
54194;BME280;40102;50.906;6.972;2023-05-01T05:07:53;100841.66;;;12.19;65.81
54194;BME280;40102;50.906;6.972;2023-05-01T05:10:19;100843.13;;;12.25;65.86
54194;BME280;40102;50.906;6.972;2023-05-01T05:12:45;100838.34;;;12.30;65.67
54194;BME280;40102;50.906;6.972;2023-05-01T05:15:10;100853.38;;;12.32;65.50
54194;BME280;40102;50.906;6.972;2023-05-01T05:17:36;100858.38;;;12.39;66.16
54194;BME280;40102;50.906;6.972;2023-05-01T05:20:01;100846.28;;;12.31;65.78
54194;BME280;40102;50.906;6.972;2023-05-01T05:22:27;100835.94;;;12.25;66.34
54194;BME280;40102;50.906;6.972;2023-05-01T05:24:54;100842.84;;;12.29;66.73
54194;BME280;40102;50.906;6.972;2023-05-01T05:27:20;100852.91;;;12.40;66.56
54194;BME280;40102;50.906;6.972;2023-05-01T05:29:46;100847.94;;;12.34;66.84
54194;BME280;40102;50.906;6.972;2023-05-01T05:32:12;100848.03;;;12.32;66.36
54194;BME280;40102;50.906;6.972;2023-05-01T05:34:38;100848.69;;;12.36;66.61
54194;BME280;40102;50.906;6.972;2023-05-01T05:37:05;100848.03;;;12.32;66.47
54194;BME280;40102;50.906;6.972;2023-05-01T05:39:30;100848.03;;;12.32;66.34
54194;BME280;40102;50.906;6.972;2023-05-01T05:41:56;100846.47;;;12.28;66.23
54194;BME280;40102;50.906;6.972;2023-05-01T05:44:23;100856.44;;;12.26;66.09
54194;BME280;40102;50.906;6.972;2023-05-01T05:46:48;100850.75;;;12.17;66.31
54194;BME280;40102;50.906;6.972;2023-05-01T05:49:15;100853.44;;;12.17;66.73
54194;BME280;40102;50.906;6.972;2023-05-01T05:51:41;100857.09;;;12.16;66.62
54194;BME280;40102;50.906;6.972;2023-05-01T05:54:07;100843.28;;;12.08;66.51
54194;BME280;40102;50.906;6.972;2023-05-01T05:56:34;100841.53;;;12.07;67.09
54194;BME280;40102;50.906;6.972;2023-05-01T05:59:00;100846.03;;;12.06;66.80
54194;BME280;40102;50.906;6.972;2023-05-01T06:01:29;100847.78;;;12.07;67.24
54194;BME280;40102;50.906;6.972;2023-05-01T06:03:56;100841.91;;;12.00;66.39
54194;BME280;40102;50.906;6.972;2023-05-01T06:06:22;100836.28;;;12.05;66.10
54194;BME280;40102;50.906;6.972;2023-05-01T06:08:48;100841.09;;;12.14;65.83
54194;BME280;40102;50.906;6.972;2023-05-01T06:11:13;100840.34;;;12.26;65.66
54194;BME280;40102;50.906;6.972;2023-05-01T06:13:39;100847.06;;;12.33;65.53
54194;BME280;40102;50.906;6.972;2023-05-01T06:16:06;100841.41;;;12.38;64.65
54194;BME280;40102;50.906;6.972;2023-05-01T06:18:32;100839.31;;;12.43;65.08
54194;BME280;40102;50.906;6.972;2023-05-01T06:20:57;100839.91;;;12.48;64.79
54194;BME280;40102;50.906;6.972;2023-05-01T06:23:24;100836.16;;;12.51;64.48
54194;BME280;40102;50.906;6.972;2023-05-01T06:25:50;100833.38;;;12.52;64.62
54194;BME280;40102;50.906;6.972;2023-05-01T06:28:19;100831.94;;;12.47;64.90
54194;BME280;40102;50.906;6.972;2023-05-01T06:30:45;100835.88;;;12.41;65.04
54194;BME280;40102;50.906;6.972;2023-05-01T06:33:12;100831.94;;;12.32;64.86
54194;BME280;40102;50.906;6.972;2023-05-01T06:35:38;100827.78;;;12.27;64.78
54194;BME280;40102;50.906;6.972;2023-05-01T06:38:08;100832.47;;;12.23;65.62
54194;BME280;40102;50.906;6.972;2023-05-01T06:40:33;100832.28;;;12.26;65.83
54194;BME280;40102;50.906;6.972;2023-05-01T06:43:01;100828.66;;;12.27;65.32
54194;BME280;40102;50.906;6.972;2023-05-01T06:45:27;100821.56;;;12.26;65.18
54194;BME280;40102;50.906;6.972;2023-05-01T06:47:53;100835.19;;;12.38;65.41
54194;BME280;40102;50.906;6.972;2023-05-01T06:50:21;100837.59;;;12.42;65.41
54194;BME280;40102;50.906;6.972;2023-05-01T06:52:47;100838.06;;;12.49;64.94
54194;BME280;40102;50.906;6.972;2023-05-01T06:55:14;100827.25;;;12.50;64.78
54194;BME280;40102;50.906;6.972;2023-05-01T06:57:39;100826.00;;;12.56;64.22
54194;BME280;40102;50.906;6.972;2023-05-01T07:00:06;100823.22;;;12.57;64.08
54194;BME280;40102;50.906;6.972;2023-05-01T07:02:32;100826.78;;;12.58;64.33
54194;BME280;40102;50.906;6.972;2023-05-01T07:04:58;100828.69;;;12.56;64.14
54194;BME280;40102;50.906;6.972;2023-05-01T07:07:24;100828.69;;;12.56;63.99
54194;BME280;40102;50.906;6.972;2023-05-01T07:09:50;100823.31;;;12.56;64.23
54194;BME280;40102;50.906;6.972;2023-05-01T07:12:16;100824.84;;;12.60;64.19
54194;BME280;40102;50.906;6.972;2023-05-01T07:14:42;100818.53;;;12.61;64.16
54194;BME280;40102;50.906;6.972;2023-05-01T07:17:08;100825.16;;;12.70;64.25
54194;BME280;40102;50.906;6.972;2023-05-01T07:19:34;100825.63;;;12.76;64.28
54194;BME280;40102;50.906;6.972;2023-05-01T07:22:00;100818.34;;;12.78;64.79
54194;BME280;40102;50.906;6.972;2023-05-01T07:24:25;100822.44;;;12.84;63.71
54194;BME280;40102;50.906;6.972;2023-05-01T07:26:56;100817.00;;;12.85;62.75
54194;BME280;40102;50.906;6.972;2023-05-01T07:29:22;100815.53;;;12.94;62.90
54194;BME280;40102;50.906;6.972;2023-05-01T07:31:54;100818.22;;;12.94;62.90
54194;BME280;40102;50.906;6.972;2023-05-01T07:34:20;100824.16;;;12.99;62.97
54194;BME280;40102;50.906;6.972;2023-05-01T07:36:47;100818.03;;;12.97;63.02
54194;BME280;40102;50.906;6.972;2023-05-01T07:39:13;100806.44;;;12.96;63.28
54194;BME280;40102;50.906;6.972;2023-05-01T07:41:39;100806.44;;;12.96;63.63
54194;BME280;40102;50.906;6.972;2023-05-01T07:44:06;100816.56;;;13.06;63.86
54194;BME280;40102;50.906;6.972;2023-05-01T07:46:32;100818.97;;;13.10;63.65
54194;BME280;40102;50.906;6.972;2023-05-01T07:48:58;100806.91;;;13.17;63.84
54194;BME280;40102;50.906;6.972;2023-05-01T07:51:24;100810.81;;;13.26;63.44
54194;BME280;40102;50.906;6.972;2023-05-01T07:53:50;100807.06;;;13.28;62.96
54194;BME280;40102;50.906;6.972;2023-05-01T07:56:16;100810.31;;;13.34;64.05
54194;BME280;40102;50.906;6.972;2023-05-01T07:58:42;100806.25;;;13.41;62.54
54194;BME280;40102;50.906;6.972;2023-05-01T08:01:08;100807.78;;;13.45;61.96
54194;BME280;40102;50.906;6.972;2023-05-01T08:03:34;100810.75;;;13.40;61.98
54194;BME280;40102;50.906;6.972;2023-05-01T08:06:00;100812.59;;;13.40;61.68
54194;BME280;40102;50.906;6.972;2023-05-01T08:08:26;100810.75;;;13.40;62.05
54194;BME280;40102;50.906;6.972;2023-05-01T08:10:53;100811.41;;;13.44;61.79
54194;BME280;40102;50.906;6.972;2023-05-01T08:13:19;100812.75;;;13.51;61.54
54194;BME280;40102;50.906;6.972;2023-05-01T08:15:45;100819.75;;;13.53;59.13
54194;BME280;40102;50.906;6.972;2023-05-01T08:18:11;100815.44;;;13.51;58.29
54194;BME280;40102;50.906;6.972;2023-05-01T08:20:38;100816.59;;;13.47;57.86
54194;BME280;40102;50.906;6.972;2023-05-01T08:23:04;100819.06;;;13.50;59.05
54194;BME280;40102;50.906;6.972;2023-05-01T08:25:30;100813.28;;;13.56;59.99
54194;BME280;40102;50.906;6.972;2023-05-01T08:27:57;100810.31;;;13.60;60.10
54194;BME280;40102;50.906;6.972;2023-05-01T08:30:23;100801.38;;;13.60;60.79
54194;BME280;40102;50.906;6.972;2023-05-01T08:32:51;100797.41;;;13.66;61.08
54194;BME280;40102;50.906;6.972;2023-05-01T08:35:17;100798.31;;;13.79;59.70
54194;BME280;40102;50.906;6.972;2023-05-01T08:37:43;100805.75;;;13.88;58.31
54194;BME280;40102;50.906;6.972;2023-05-01T08:40:09;100797.78;;;13.86;59.05
54194;BME280;40102;50.906;6.972;2023-05-01T08:42:35;100806.00;;;13.98;57.83
54194;BME280;40102;50.906;6.972;2023-05-01T08:45:07;100806.44;;;14.04;59.62
54194;BME280;40102;50.906;6.972;2023-05-01T08:47:35;100797.06;;;14.10;58.71
54194;BME280;40102;50.906;6.972;2023-05-01T08:50:03;100797.84;;;14.12;56.56
54194;BME280;40102;50.906;6.972;2023-05-01T08:52:29;100793.97;;;14.16;57.45
54194;BME280;40102;50.906;6.972;2023-05-01T08:54:58;100797.41;;;14.18;56.69
54194;BME280;40102;50.906;6.972;2023-05-01T08:57:26;100809.69;;;14.35;58.23
54194;BME280;40102;50.906;6.972;2023-05-01T08:59:56;100798.94;;;14.35;55.34
54194;BME280;40102;50.906;6.972;2023-05-01T09:02:23;100810.34;;;14.38;55.13
54194;BME280;40102;50.906;6.972;2023-05-01T09:04:49;100797.94;;;14.36;55.56
54194;BME280;40102;50.906;6.972;2023-05-01T09:07:15;100802.16;;;14.40;56.61
54194;BME280;40102;50.906;6.972;2023-05-01T09:09:41;100795.72;;;14.42;56.24
54194;BME280;40102;50.906;6.972;2023-05-01T09:12:24;100787.44;;;14.45;56.69
54194;BME280;40102;50.906;6.972;2023-05-01T09:14:51;100801.09;;;14.55;56.26
54194;BME280;40102;50.906;6.972;2023-05-01T09:17:19;100797.13;;;14.48;56.05
54194;BME280;40102;50.906;6.972;2023-05-01T09:19:44;100798.31;;;14.56;56.01
54194;BME280;40102;50.906;6.972;2023-05-01T09:22:11;100803.25;;;14.63;57.79
54194;BME280;40102;50.906;6.972;2023-05-01T09:24:36;100798.41;;;14.68;57.21
54194;BME280;40102;50.906;6.972;2023-05-01T09:27:01;100784.19;;;14.66;55.52
54194;BME280;40102;50.906;6.972;2023-05-01T09:29:40;100800.88;;;14.71;56.04
54194;BME280;40102;50.906;6.972;2023-05-01T09:32:17;100801.94;;;14.81;57.82
54194;BME280;40102;50.906;6.972;2023-05-01T09:34:44;100787.84;;;14.77;58.13
54194;BME280;40102;50.906;6.972;2023-05-01T09:37:27;100813.66;;;14.93;57.52
54194;BME280;40102;50.906;6.972;2023-05-01T09:40:06;100799.97;;;14.96;56.80
54194;BME280;40102;50.906;6.972;2023-05-01T09:42:34;100793.50;;;14.98;56.64
54194;BME280;40102;50.906;6.972;2023-05-01T09:45:01;100796.16;;;15.11;57.11
54194;BME280;40102;50.906;6.972;2023-05-01T09:47:28;100791.19;;;15.17;56.63
54194;BME280;40102;50.906;6.972;2023-05-01T09:49:55;100789.22;;;15.19;56.33
54194;BME280;40102;50.906;6.972;2023-05-01T09:52:28;100790.72;;;15.23;56.29
54194;BME280;40102;50.906;6.972;2023-05-01T09:55:16;100798.66;;;15.38;55.87
54194;BME280;40102;50.906;6.972;2023-05-01T09:57:43;100784.72;;;15.44;55.62
54194;BME280;40102;50.906;6.972;2023-05-01T10:00:10;100787.88;;;15.62;55.27
54194;BME280;40102;50.906;6.972;2023-05-01T10:02:37;100773.06;;;15.67;55.57
54194;BME280;40102;50.906;6.972;2023-05-01T10:05:03;100777.97;;;15.73;54.83
54194;BME280;40102;50.906;6.972;2023-05-01T10:07:28;100774.22;;;15.87;54.88
54194;BME280;40102;50.906;6.972;2023-05-01T10:09:55;100767.50;;;15.93;55.15
54194;BME280;40102;50.906;6.972;2023-05-01T10:12:27;100780.53;;;16.10;54.61
54194;BME280;40102;50.906;6.972;2023-05-01T10:14:56;100772.34;;;16.11;54.11
54194;BME280;40102;50.906;6.972;2023-05-01T10:17:22;100777.72;;;16.11;53.46
54194;BME280;40102;50.906;6.972;2023-05-01T10:19:48;100785.47;;;16.16;54.13
54194;BME280;40102;50.906;6.972;2023-05-01T10:22:14;100766.69;;;16.14;53.99
54194;BME280;40102;50.906;6.972;2023-05-01T10:24:41;100763.91;;;16.27;53.76
54194;BME280;40102;50.906;6.972;2023-05-01T10:27:07;100757.66;;;16.38;53.54
54194;BME280;40102;50.906;6.972;2023-05-01T10:29:34;100758.16;;;16.43;52.85
54194;BME280;40102;50.906;6.972;2023-05-01T10:32:02;100757.91;;;16.46;52.83
54194;BME280;40102;50.906;6.972;2023-05-01T10:34:30;100768.94;;;16.54;52.63
54194;BME280;40102;50.906;6.972;2023-05-01T10:37:05;100754.84;;;16.62;52.99
54194;BME280;40102;50.906;6.972;2023-05-01T10:39:35;100761.22;;;16.61;52.45
54194;BME280;40102;50.906;6.972;2023-05-01T10:42:08;100750.41;;;16.61;52.73
54194;BME280;40102;50.906;6.972;2023-05-01T10:44:41;100749.09;;;16.66;51.30
54194;BME280;40102;50.906;6.972;2023-05-01T10:50:07;100742.44;;;16.93;50.03
54194;BME280;40102;50.906;6.972;2023-05-01T10:55:44;100740.81;;;17.01;49.92
54194;BME280;40102;50.906;6.972;2023-05-01T10:58:11;100728.06;;;17.03;50.67
54194;BME280;40102;50.906;6.972;2023-05-01T11:00:36;100746.69;;;17.17;50.29
54194;BME280;40102;50.906;6.972;2023-05-01T11:03:33;100741.16;;;17.19;50.12
54194;BME280;40102;50.906;6.972;2023-05-01T11:10:56;100731.59;;;17.15;49.32
54194;BME280;40102;50.906;6.972;2023-05-01T11:19:04;100725.25;;;17.37;48.42
54194;BME280;40102;50.906;6.972;2023-05-01T11:21:31;100732.03;;;17.31;48.04
54194;BME280;40102;50.906;6.972;2023-05-01T11:24:01;100740.47;;;17.38;47.36
54194;BME280;40102;50.906;6.972;2023-05-01T11:26:28;100732.97;;;17.41;47.16
54194;BME280;40102;50.906;6.972;2023-05-01T11:28:56;100728.63;;;17.50;46.92
54194;BME280;40102;50.906;6.972;2023-05-01T11:31:22;100737.78;;;17.70;47.18
54194;BME280;40102;50.906;6.972;2023-05-01T11:33:48;100727.50;;;17.85;47.59
54194;BME280;40102;50.906;6.972;2023-05-01T11:36:13;100730.94;;;17.87;46.94
54194;BME280;40102;50.906;6.972;2023-05-01T11:38:55;100721.69;;;17.89;46.77
54194;BME280;40102;50.906;6.972;2023-05-01T11:41:22;100723.63;;;17.98;46.03
54194;BME280;40102;50.906;6.972;2023-05-01T11:43:57;100729.81;;;18.10;46.59
54194;BME280;40102;50.906;6.972;2023-05-01T11:46:26;100726.16;;;18.21;45.96
54194;BME280;40102;50.906;6.972;2023-05-01T11:48:56;100725.75;;;18.25;46.13
54194;BME280;40102;50.906;6.972;2023-05-01T11:51:22;100712.81;;;18.29;45.64
54194;BME280;40102;50.906;6.972;2023-05-01T11:54:09;100728.69;;;18.43;44.71
54194;BME280;40102;50.906;6.972;2023-05-01T11:56:35;100712.59;;;18.41;44.69
54194;BME280;40102;50.906;6.972;2023-05-01T11:59:27;100719.59;;;18.44;44.31
54194;BME280;40102;50.906;6.972;2023-05-01T12:01:54;100714.16;;;18.44;45.14
54194;BME280;40102;50.906;6.972;2023-05-01T12:04:24;100708.34;;;18.49;44.43
54194;BME280;40102;50.906;6.972;2023-05-01T12:06:51;100707.34;;;18.50;45.18
54194;BME280;40102;50.906;6.972;2023-05-01T12:09:18;100701.38;;;18.56;43.79
54194;BME280;40102;50.906;6.972;2023-05-01T12:11:45;100703.81;;;18.59;43.69
54194;BME280;40102;50.906;6.972;2023-05-01T12:14:11;100711.09;;;18.58;43.53
54194;BME280;40102;50.906;6.972;2023-05-01T12:16:38;100704.38;;;18.53;43.26
54194;BME280;40102;50.906;6.972;2023-05-01T12:19:05;100711.00;;;18.39;43.55
54194;BME280;40102;50.906;6.972;2023-05-01T12:21:31;100701.31;;;18.36;43.55
54194;BME280;40102;50.906;6.972;2023-05-01T12:24:06;100707.72;;;18.35;43.96
54194;BME280;40102;50.906;6.972;2023-05-01T12:26:31;100704.75;;;18.38;44.03
54194;BME280;40102;50.906;6.972;2023-05-01T12:28:59;100695.63;;;18.39;43.64
54194;BME280;40102;50.906;6.972;2023-05-01T12:31:25;100703.47;;;18.42;43.21
54194;BME280;40102;50.906;6.972;2023-05-01T12:34:11;100709.13;;;18.30;43.92
54194;BME280;40102;50.906;6.972;2023-05-01T12:36:37;100696.97;;;18.24;43.83
54194;BME280;40102;50.906;6.972;2023-05-01T12:39:09;100702.56;;;18.32;42.78
54194;BME280;40102;50.906;6.972;2023-05-01T12:41:43;100689.91;;;18.33;41.03
54194;BME280;40102;50.906;6.972;2023-05-01T12:46:44;100705.19;;;18.43;41.82
54194;BME280;40102;50.906;6.972;2023-05-01T12:49:18;100695.94;;;18.46;41.68
54194;BME280;40102;50.906;6.972;2023-05-01T12:51:51;100691.50;;;18.45;42.50
54194;BME280;40102;50.906;6.972;2023-05-01T12:54:20;100714.53;;;18.60;42.85
54194;BME280;40102;50.906;6.972;2023-05-01T12:56:46;100686.47;;;18.61;42.48
54194;BME280;40102;50.906;6.972;2023-05-01T12:59:22;100687.34;;;18.62;42.87
54194;BME280;40102;50.906;6.972;2023-05-01T13:01:59;100690.38;;;18.78;42.80
54194;BME280;40102;50.906;6.972;2023-05-01T13:04:25;100676.44;;;19.02;41.98
54194;BME280;40102;50.906;6.972;2023-05-01T13:06:54;100669.75;;;19.16;42.20
54194;BME280;40102;50.906;6.972;2023-05-01T13:09:22;100677.16;;;19.14;41.50
54194;BME280;40102;50.906;6.972;2023-05-01T13:12:03;100670.19;;;19.11;40.15
54194;BME280;40102;50.906;6.972;2023-05-01T13:14:37;100681.31;;;19.08;40.36
54194;BME280;40102;50.906;6.972;2023-05-01T13:17:09;100682.88;;;19.20;41.17
54194;BME280;40102;50.906;6.972;2023-05-01T13:19:36;100670.47;;;19.37;40.79
54194;BME280;40102;50.906;6.972;2023-05-01T13:22:02;100668.34;;;19.60;38.85
54194;BME280;40102;50.906;6.972;2023-05-01T13:24:38;100665.78;;;19.58;37.16
54194;BME280;40102;50.906;6.972;2023-05-01T13:27:03;100676.50;;;19.60;37.92
54194;BME280;40102;50.906;6.972;2023-05-01T13:29:29;100670.63;;;19.55;36.77